sensor_id;sensor_type;location;lat;lon;timestamp;temperature;humidity
67722;SHT31;58309;45.292;11.820;2023-06-01T00:02:10;17.06;85.48
67722;SHT31;58309;45.292;11.820;2023-06-01T00:04:37;17.05;85.25
67722;SHT31;58309;45.292;11.820;2023-06-01T00:07:09;17.01;85.17
67722;SHT31;58309;45.292;11.820;2023-06-01T00:09:36;16.99;85.10
67722;SHT31;58309;45.292;11.820;2023-06-01T00:12:02;17.01;85.27
67722;SHT31;58309;45.292;11.820;2023-06-01T00:14:28;16.99;85.38
67722;SHT31;58309;45.292;11.820;2023-06-01T00:16:54;16.99;85.57
67722;SHT31;58309;45.292;11.820;2023-06-01T00:19:21;16.96;85.08
67722;SHT31;58309;45.292;11.820;2023-06-01T00:21:47;16.99;85.04
67722;SHT31;58309;45.292;11.820;2023-06-01T00:24:12;17.01;85.10
67722;SHT31;58309;45.292;11.820;2023-06-01T00:26:38;17.03;84.84
67722;SHT31;58309;45.292;11.820;2023-06-01T00:29:03;17.01;85.02
67722;SHT31;58309;45.292;11.820;2023-06-01T00:31:29;17.01;84.68
67722;SHT31;58309;45.292;11.820;2023-06-01T00:33:54;16.99;84.70
67722;SHT31;58309;45.292;11.820;2023-06-01T00:36:20;16.98;84.86
67722;SHT31;58309;45.292;11.820;2023-06-01T00:38:46;16.93;84.63
67722;SHT31;58309;45.292;11.820;2023-06-01T00:41:12;16.89;84.63
67722;SHT31;58309;45.292;11.820;2023-06-01T00:43:38;16.86;84.68
67722;SHT31;58309;45.292;11.820;2023-06-01T00:46:05;16.82;84.63
67722;SHT31;58309;45.292;11.820;2023-06-01T00:48:30;16.82;85.11
67722;SHT31;58309;45.292;11.820;2023-06-01T00:50:56;16.82;85.12
67722;SHT31;58309;45.292;11.820;2023-06-01T00:53:24;16.79;84.93
67722;SHT31;58309;45.292;11.820;2023-06-01T00:55:50;16.76;84.93
67722;SHT31;58309;45.292;11.820;2023-06-01T00:58:15;16.76;85.06
67722;SHT31;58309;45.292;11.820;2023-06-01T01:00:41;16.75;85.03
67722;SHT31;58309;45.292;11.820;2023-06-01T01:03:07;16.74;85.33
67722;SHT31;58309;45.292;11.820;2023-06-01T01:05:35;16.69;85.22
67722;SHT31;58309;45.292;11.820;2023-06-01T01:08:15;16.68;85.14
67722;SHT31;58309;45.292;11.820;2023-06-01T01:11:04;16.65;85.13
67722;SHT31;58309;45.292;11.820;2023-06-01T01:13:47;16.64;85.14
67722;SHT31;58309;45.292;11.820;2023-06-01T01:16:31;16.61;85.16
67722;SHT31;58309;45.292;11.820;2023-06-01T01:22:13;16.54;85.77
67722;SHT31;58309;45.292;11.820;2023-06-01T01:30:07;16.55;86.39
67722;SHT31;58309;45.292;11.820;2023-06-01T01:32:34;16.53;85.85
67722;SHT31;58309;45.292;11.820;2023-06-01T01:35:01;16.58;85.20
67722;SHT31;58309;45.292;11.820;2023-06-01T01:37:29;16.58;85.36
67722;SHT31;58309;45.292;11.820;2023-06-01T01:39:55;16.60;85.72
67722;SHT31;58309;45.292;11.820;2023-06-01T01:42:20;16.61;85.71
67722;SHT31;58309;45.292;11.820;2023-06-01T01:44:46;16.58;85.55
67722;SHT31;58309;45.292;11.820;2023-06-01T01:47:27;16.58;85.71
67722;SHT31;58309;45.292;11.820;2023-06-01T01:49:59;16.54;85.36
67722;SHT31;58309;45.292;11.820;2023-06-01T01:52:32;16.54;85.71
67722;SHT31;58309;45.292;11.820;2023-06-01T01:55:00;16.55;85.70
67722;SHT31;58309;45.292;11.820;2023-06-01T01:57:26;16.57;86.16
67722;SHT31;58309;45.292;11.820;2023-06-01T01:59:54;16.51;86.12
67722;SHT31;58309;45.292;11.820;2023-06-01T02:02:20;16.50;85.92
67722;SHT31;58309;45.292;11.820;2023-06-01T02:04:46;16.44;86.01
67722;SHT31;58309;45.292;11.820;2023-06-01T02:07:11;16.40;86.04
67722;SHT31;58309;45.292;11.820;2023-06-01T02:09:38;16.43;86.47
67722;SHT31;58309;45.292;11.820;2023-06-01T02:12:04;16.45;86.39
67722;SHT31;58309;45.292;11.820;2023-06-01T02:14:29;16.40;86.48
67722;SHT31;58309;45.292;11.820;2023-06-01T02:16:55;16.37;86.44
67722;SHT31;58309;45.292;11.820;2023-06-01T02:19:21;16.34;86.86
67722;SHT31;58309;45.292;11.820;2023-06-01T02:21:47;16.34;86.65
67722;SHT31;58309;45.292;11.820;2023-06-01T02:24:13;16.33;86.79
67722;SHT31;58309;45.292;11.820;2023-06-01T02:26:38;16.33;86.88
67722;SHT31;58309;45.292;11.820;2023-06-01T02:29:04;16.28;86.92
67722;SHT31;58309;45.292;11.820;2023-06-01T02:31:36;16.27;86.77
67722;SHT31;58309;45.292;11.820;2023-06-01T02:34:02;16.28;86.58
67722;SHT31;58309;45.292;11.820;2023-06-01T02:36:27;16.28;86.42
67722;SHT31;58309;45.292;11.820;2023-06-01T02:38:57;16.23;86.40
67722;SHT31;58309;45.292;11.820;2023-06-01T02:41:23;16.23;86.43
67722;SHT31;58309;45.292;11.820;2023-06-01T02:43:48;16.23;86.44
67722;SHT31;58309;45.292;11.820;2023-06-01T02:46:16;16.21;86.76
67722;SHT31;58309;45.292;11.820;2023-06-01T02:48:43;16.20;86.89
67722;SHT31;58309;45.292;11.820;2023-06-01T02:51:08;16.13;87.14
67722;SHT31;58309;45.292;11.820;2023-06-01T02:53:33;16.12;87.28
67722;SHT31;58309;45.292;11.820;2023-06-01T02:55:59;16.10;87.37
67722;SHT31;58309;45.292;11.820;2023-06-01T02:58:25;16.07;87.58
67722;SHT31;58309;45.292;11.820;2023-06-01T03:00:50;16.09;87.52
67722;SHT31;58309;45.292;11.820;2023-06-01T03:03:16;16.10;87.73
67722;SHT31;58309;45.292;11.820;2023-06-01T03:05:42;16.12;87.95
67722;SHT31;58309;45.292;11.820;2023-06-01T03:08:08;16.12;87.62
67722;SHT31;58309;45.292;11.820;2023-06-01T03:10:34;16.07;87.47
67722;SHT31;58309;45.292;11.820;2023-06-01T03:13:00;16.09;87.46
67722;SHT31;58309;45.292;11.820;2023-06-01T03:15:26;16.06;87.57
67722;SHT31;58309;45.292;11.820;2023-06-01T03:17:53;16.06;87.74
67722;SHT31;58309;45.292;11.820;2023-06-01T03:20:18;16.04;87.12
67722;SHT31;58309;45.292;11.820;2023-06-01T03:22:45;16.06;87.29
67722;SHT31;58309;45.292;11.820;2023-06-01T03:25:11;16.07;87.56
67722;SHT31;58309;45.292;11.820;2023-06-01T03:27:41;16.07;86.90
67722;SHT31;58309;45.292;11.820;2023-06-01T03:30:07;16.12;86.87
67722;SHT31;58309;45.292;11.820;2023-06-01T03:32:41;16.07;87.23
67722;SHT31;58309;45.292;11.820;2023-06-01T03:35:11;16.13;86.74
67722;SHT31;58309;45.292;11.820;2023-06-01T03:37:39;16.18;86.36
67722;SHT31;58309;45.292;11.820;2023-06-01T03:40:06;16.23;86.75
67722;SHT31;58309;45.292;11.820;2023-06-01T03:42:36;16.20;85.98
67722;SHT31;58309;45.292;11.820;2023-06-01T03:45:03;16.23;85.87
67722;SHT31;58309;45.292;11.820;2023-06-01T03:47:30;16.28;85.67
67722;SHT31;58309;45.292;11.820;2023-06-01T03:49:55;16.28;85.22
67722;SHT31;58309;45.292;11.820;2023-06-01T03:52:23;16.31;85.35
67722;SHT31;58309;45.292;11.820;2023-06-01T03:54:49;16.34;85.38
67722;SHT31;58309;45.292;11.820;2023-06-01T03:57:14;16.41;85.71
67722;SHT31;58309;45.292;11.820;2023-06-01T03:59:40;16.43;86.03
67722;SHT31;58309;45.292;11.820;2023-06-01T04:02:06;16.44;85.33
67722;SHT31;58309;45.292;11.820;2023-06-01T04:04:34;16.47;85.18
67722;SHT31;58309;45.292;11.820;2023-06-01T04:07:01;16.51;85.39
67722;SHT31;58309;45.292;11.820;2023-06-01T04:09:28;16.55;84.87
67722;SHT31;58309;45.292;11.820;2023-06-01T04:11:54;16.55;84.95
67722;SHT31;58309;45.292;11.820;2023-06-01T04:14:20;16.64;84.99
67722;SHT31;58309;45.292;11.820;2023-06-01T04:16:46;16.65;85.00
67722;SHT31;58309;45.292;11.820;2023-06-01T04:19:11;16.69;85.75
67722;SHT31;58309;45.292;11.820;2023-06-01T04:21:37;16.72;85.50
67722;SHT31;58309;45.292;11.820;2023-06-01T04:24:03;16.78;85.01
67722;SHT31;58309;45.292;11.820;2023-06-01T04:26:28;16.82;84.73
67722;SHT31;58309;45.292;11.820;2023-06-01T04:28:58;16.88;84.33
67722;SHT31;58309;45.292;11.820;2023-06-01T04:31:24;16.99;83.59
67722;SHT31;58309;45.292;11.820;2023-06-01T04:33:49;17.13;83.86
67722;SHT31;58309;45.292;11.820;2023-06-01T04:36:21;17.27;83.18
67722;SHT31;58309;45.292;11.820;2023-06-01T04:38:48;17.44;83.33
67722;SHT31;58309;45.292;11.820;2023-06-01T04:41:23;17.63;83.08
67722;SHT31;58309;45.292;11.820;2023-06-01T04:43:49;17.75;83.29
67722;SHT31;58309;45.292;11.820;2023-06-01T04:46:20;17.90;83.13
67722;SHT31;58309;45.292;11.820;2023-06-01T04:48:49;18.04;79.81
67722;SHT31;58309;45.292;11.820;2023-06-01T04:51:19;18.14;80.83
67722;SHT31;58309;45.292;11.820;2023-06-01T04:53:47;18.24;80.42
67722;SHT31;58309;45.292;11.820;2023-06-01T04:56:24;18.34;79.25
67722;SHT31;58309;45.292;11.820;2023-06-01T04:58:54;18.43;80.19
67722;SHT31;58309;45.292;11.820;2023-06-01T05:01:24;18.51;79.99
67722;SHT31;58309;45.292;11.820;2023-06-01T05:03:55;18.60;79.52
67722;SHT31;58309;45.292;11.820;2023-06-01T05:06:21;18.70;79.93
67722;SHT31;58309;45.292;11.820;2023-06-01T05:08:47;18.80;79.00
67722;SHT31;58309;45.292;11.820;2023-06-01T05:11:13;18.86;78.67
67722;SHT31;58309;45.292;11.820;2023-06-01T05:13:40;18.96;79.23
67722;SHT31;58309;45.292;11.820;2023-06-01T05:16:07;19.07;78.17
67722;SHT31;58309;45.292;11.820;2023-06-01T05:18:33;19.15;77.54
67722;SHT31;58309;45.292;11.820;2023-06-01T05:20:59;19.28;78.52
67722;SHT31;58309;45.292;11.820;2023-06-01T05:23:26;19.36;77.52
67722;SHT31;58309;45.292;11.820;2023-06-01T05:25:52;19.43;76.48
67722;SHT31;58309;45.292;11.820;2023-06-01T05:28:20;19.48;76.20
67722;SHT31;58309;45.292;11.820;2023-06-01T05:30:46;19.57;75.97
67722;SHT31;58309;45.292;11.820;2023-06-01T05:33:12;19.65;76.98
67722;SHT31;58309;45.292;11.820;2023-06-01T05:35:38;19.75;76.45
67722;SHT31;58309;45.292;11.820;2023-06-01T05:38:03;19.85;75.15
67722;SHT31;58309;45.292;11.820;2023-06-01T05:40:29;19.90;73.46
67722;SHT31;58309;45.292;11.820;2023-06-01T05:42:54;19.99;73.82
67722;SHT31;58309;45.292;11.820;2023-06-01T05:45:20;20.06;75.17
67722;SHT31;58309;45.292;11.820;2023-06-01T05:47:45;20.17;74.54
67722;SHT31;58309;45.292;11.820;2023-06-01T05:50:11;20.23;75.36
67722;SHT31;58309;45.292;11.820;2023-06-01T05:52:37;20.32;72.74
67722;SHT31;58309;45.292;11.820;2023-06-01T05:55:04;20.40;74.28
67722;SHT31;58309;45.292;11.820;2023-06-01T05:57:29;20.46;74.69
67722;SHT31;58309;45.292;11.820;2023-06-01T05:59:55;20.53;72.76
67722;SHT31;58309;45.292;11.820;2023-06-01T06:02:20;20.63;73.36
67722;SHT31;58309;45.292;11.820;2023-06-01T06:04:46;20.70;74.43
67722;SHT31;58309;45.292;11.820;2023-06-01T06:07:11;20.81;74.81
67722;SHT31;58309;45.292;11.820;2023-06-01T06:09:37;20.94;74.07
67722;SHT31;58309;45.292;11.820;2023-06-01T06:12:03;20.98;72.79
67722;SHT31;58309;45.292;11.820;2023-06-01T06:14:29;21.11;72.12
67722;SHT31;58309;45.292;11.820;2023-06-01T06:16:54;21.14;70.99
67722;SHT31;58309;45.292;11.820;2023-06-01T06:19:20;21.19;70.78
67722;SHT31;58309;45.292;11.820;2023-06-01T06:21:46;21.29;71.51
67722;SHT31;58309;45.292;11.820;2023-06-01T06:24:11;21.38;71.46
67722;SHT31;58309;45.292;11.820;2023-06-01T06:26:37;21.52;70.04
67722;SHT31;58309;45.292;11.820;2023-06-01T06:29:02;21.59;69.83
67722;SHT31;58309;45.292;11.820;2023-06-01T06:31:28;21.69;70.42
67722;SHT31;58309;45.292;11.820;2023-06-01T06:33:53;21.73;68.80
67722;SHT31;58309;45.292;11.820;2023-06-01T06:36:19;21.82;69.08
67722;SHT31;58309;45.292;11.820;2023-06-01T06:38:45;21.86;70.07
67722;SHT31;58309;45.292;11.820;2023-06-01T06:41:10;21.98;70.93
67722;SHT31;58309;45.292;11.820;2023-06-01T06:43:36;22.07;69.97
67722;SHT31;58309;45.292;11.820;2023-06-01T06:46:02;22.18;69.95
67722;SHT31;58309;45.292;11.820;2023-06-01T06:48:28;22.22;68.63
67722;SHT31;58309;45.292;11.820;2023-06-01T06:50:54;22.18;69.71
67722;SHT31;58309;45.292;11.820;2023-06-01T06:53:20;22.28;71.10
67722;SHT31;58309;45.292;11.820;2023-06-01T06:55:45;22.34;69.23
67722;SHT31;58309;45.292;11.820;2023-06-01T06:58:12;22.41;69.20
67722;SHT31;58309;45.292;11.820;2023-06-01T07:00:39;22.49;69.83
67722;SHT31;58309;45.292;11.820;2023-06-01T07:03:05;22.56;69.20
67722;SHT31;58309;45.292;11.820;2023-06-01T07:05:30;22.61;68.81
67722;SHT31;58309;45.292;11.820;2023-06-01T07:07:56;22.75;68.14
67722;SHT31;58309;45.292;11.820;2023-06-01T07:10:21;22.79;66.13
67722;SHT31;58309;45.292;11.820;2023-06-01T07:12:47;22.85;66.77
67722;SHT31;58309;45.292;11.820;2023-06-01T07:15:12;22.99;66.35
67722;SHT31;58309;45.292;11.820;2023-06-01T07:17:38;23.09;66.20
67722;SHT31;58309;45.292;11.820;2023-06-01T07:20:04;23.14;66.97
67722;SHT31;58309;45.292;11.820;2023-06-01T07:22:32;23.03;68.44
67722;SHT31;58309;45.292;11.820;2023-06-01T07:24:58;23.17;67.85
67722;SHT31;58309;45.292;11.820;2023-06-01T07:27:23;23.12;65.30
67722;SHT31;58309;45.292;11.820;2023-06-01T07:29:50;23.26;66.92
67722;SHT31;58309;45.292;11.820;2023-06-01T07:32:24;23.43;65.45
67722;SHT31;58309;45.292;11.820;2023-06-01T07:34:51;23.53;64.87
67722;SHT31;58309;45.292;11.820;2023-06-01T07:37:16;23.68;67.43
67722;SHT31;58309;45.292;11.820;2023-06-01T07:39:47;23.67;62.57
67722;SHT31;58309;45.292;11.820;2023-06-01T07:42:13;23.74;64.40
67722;SHT31;58309;45.292;11.820;2023-06-01T07:44:39;23.88;61.96
67722;SHT31;58309;45.292;11.820;2023-06-01T07:47:05;24.06;61.12
67722;SHT31;58309;45.292;11.820;2023-06-01T07:49:31;24.22;61.93
67722;SHT31;58309;45.292;11.820;2023-06-01T07:51:56;24.33;62.69
67722;SHT31;58309;45.292;11.820;2023-06-01T07:54:24;24.43;60.38
67722;SHT31;58309;45.292;11.820;2023-06-01T07:56:49;24.70;60.68
67722;SHT31;58309;45.292;11.820;2023-06-01T07:59:16;25.27;59.97
67722;SHT31;58309;45.292;11.820;2023-06-01T08:01:41;26.23;58.26
67722;SHT31;58309;45.292;11.820;2023-06-01T08:04:07;27.28;55.14
67722;SHT31;58309;45.292;11.820;2023-06-01T08:06:33;28.21;51.53
67722;SHT31;58309;45.292;11.820;2023-06-01T08:09:02;28.08;50.79
67722;SHT31;58309;45.292;11.820;2023-06-01T08:11:28;28.42;49.59
67722;SHT31;58309;45.292;11.820;2023-06-01T08:13:53;29.43;48.66
67722;SHT31;58309;45.292;11.820;2023-06-01T08:16:19;29.82;47.19
67722;SHT31;58309;45.292;11.820;2023-06-01T08:18:45;30.95;46.83
67722;SHT31;58309;45.292;11.820;2023-06-01T08:21:10;30.28;46.93
67722;SHT31;58309;45.292;11.820;2023-06-01T08:23:35;30.46;47.21
67722;SHT31;58309;45.292;11.820;2023-06-01T08:26:01;31.46;44.15
67722;SHT31;58309;45.292;11.820;2023-06-01T08:28:27;30.94;44.40
67722;SHT31;58309;45.292;11.820;2023-06-01T08:30:52;31.61;44.29
67722;SHT31;58309;45.292;11.820;2023-06-01T08:33:18;32.08;44.27
67722;SHT31;58309;45.292;11.820;2023-06-01T08:35:43;32.67;43.60
67722;SHT31;58309;45.292;11.820;2023-06-01T08:38:09;33.38;42.50
67722;SHT31;58309;45.292;11.820;2023-06-01T08:40:35;32.82;41.04
67722;SHT31;58309;45.292;11.820;2023-06-01T08:43:19;31.52;43.62
67722;SHT31;58309;45.292;11.820;2023-06-01T08:45:45;32.78;42.41
67722;SHT31;58309;45.292;11.820;2023-06-01T08:48:16;33.36;42.78
67722;SHT31;58309;45.292;11.820;2023-06-01T08:50:47;32.20;43.62
67722;SHT31;58309;45.292;11.820;2023-06-01T08:53:16;32.82;40.95
67722;SHT31;58309;45.292;11.820;2023-06-01T08:55:44;33.11;40.79
67722;SHT31;58309;45.292;11.820;2023-06-01T08:58:11;32.85;42.65
67722;SHT31;58309;45.292;11.820;2023-06-01T09:00:38;33.26;41.51
67722;SHT31;58309;45.292;11.820;2023-06-01T09:03:06;33.63;41.03
67722;SHT31;58309;45.292;11.820;2023-06-01T09:05:31;34.10;40.74
67722;SHT31;58309;45.292;11.820;2023-06-01T09:07:57;32.20;43.16
67722;SHT31;58309;45.292;11.820;2023-06-01T09:10:23;32.50;42.77
67722;SHT31;58309;45.292;11.820;2023-06-01T09:12:53;33.18;42.00
67722;SHT31;58309;45.292;11.820;2023-06-01T09:15:19;33.45;42.69
67722;SHT31;58309;45.292;11.820;2023-06-01T09:17:47;32.56;42.16
67722;SHT31;58309;45.292;11.820;2023-06-01T09:20:14;34.11;40.04
67722;SHT31;58309;45.292;11.820;2023-06-01T09:22:44;33.36;40.18
67722;SHT31;58309;45.292;11.820;2023-06-01T09:25:11;34.48;37.51
67722;SHT31;58309;45.292;11.820;2023-06-01T09:27:48;35.06;37.08
67722;SHT31;58309;45.292;11.820;2023-06-01T09:30:15;33.49;39.84
67722;SHT31;58309;45.292;11.820;2023-06-01T09:32:41;33.70;39.22
67722;SHT31;58309;45.292;11.820;2023-06-01T09:35:08;32.88;42.56
67722;SHT31;58309;45.292;11.820;2023-06-01T09:37:37;34.65;39.27
67722;SHT31;58309;45.292;11.820;2023-06-01T09:40:17;34.28;41.25
67722;SHT31;58309;45.292;11.820;2023-06-01T09:42:43;33.62;40.02
67722;SHT31;58309;45.292;11.820;2023-06-01T09:45:29;35.03;37.45
67722;SHT31;58309;45.292;11.820;2023-06-01T09:48:16;35.43;40.28
67722;SHT31;58309;45.292;11.820;2023-06-01T09:50:44;35.12;39.12
67722;SHT31;58309;45.292;11.820;2023-06-01T09:53:10;35.26;37.32
67722;SHT31;58309;45.292;11.820;2023-06-01T09:55:36;35.40;36.04
67722;SHT31;58309;45.292;11.820;2023-06-01T09:58:20;35.77;35.91
67722;SHT31;58309;45.292;11.820;2023-06-01T10:00:48;35.70;36.53
67722;SHT31;58309;45.292;11.820;2023-06-01T10:03:15;35.28;35.78
67722;SHT31;58309;45.292;11.820;2023-06-01T10:05:43;33.96;39.14
67722;SHT31;58309;45.292;11.820;2023-06-01T10:08:11;35.18;36.97
67722;SHT31;58309;45.292;11.820;2023-06-01T10:10:38;33.19;40.28
67722;SHT31;58309;45.292;11.820;2023-06-01T10:13:04;33.66;39.78
67722;SHT31;58309;45.292;11.820;2023-06-01T10:15:30;34.27;37.93
67722;SHT31;58309;45.292;11.820;2023-06-01T10:17:56;35.16;37.27
67722;SHT31;58309;45.292;11.820;2023-06-01T10:20:23;34.16;38.65
67722;SHT31;58309;45.292;11.820;2023-06-01T10:22:49;35.03;36.27
67722;SHT31;58309;45.292;11.820;2023-06-01T10:25:17;35.51;37.27
67722;SHT31;58309;45.292;11.820;2023-06-01T10:27:54;35.69;37.82
67722;SHT31;58309;45.292;11.820;2023-06-01T10:30:20;34.95;38.45
67722;SHT31;58309;45.292;11.820;2023-06-01T10:32:46;35.40;37.91
67722;SHT31;58309;45.292;11.820;2023-06-01T10:40:44;36.51;38.66
67722;SHT31;58309;45.292;11.820;2023-06-01T10:46:01;36.21;37.65
67722;SHT31;58309;45.292;11.820;2023-06-01T10:48:54;35.50;37.38
67722;SHT31;58309;45.292;11.820;2023-06-01T10:51:20;34.64;38.37
67722;SHT31;58309;45.292;11.820;2023-06-01T10:53:46;35.03;39.56
67722;SHT31;58309;45.292;11.820;2023-06-01T10:58:46;36.31;37.02
67722;SHT31;58309;45.292;11.820;2023-06-01T11:01:18;35.98;37.80
67722;SHT31;58309;45.292;11.820;2023-06-01T11:03:46;36.72;35.19
67722;SHT31;58309;45.292;11.820;2023-06-01T11:06:28;36.11;35.36
67722;SHT31;58309;45.292;11.820;2023-06-01T11:08:55;35.06;36.73
67722;SHT31;58309;45.292;11.820;2023-06-01T11:11:21;35.05;37.78
67722;SHT31;58309;45.292;11.820;2023-06-01T11:14:06;34.34;39.35
67722;SHT31;58309;45.292;11.820;2023-06-01T11:16:32;35.35;38.06
67722;SHT31;58309;45.292;11.820;2023-06-01T11:18:59;35.74;36.43
67722;SHT31;58309;45.292;11.820;2023-06-01T11:21:37;34.16;40.20
67722;SHT31;58309;45.292;11.820;2023-06-01T11:26:37;33.52;38.47
67722;SHT31;58309;45.292;11.820;2023-06-01T11:31:52;32.94;40.20
67722;SHT31;58309;45.292;11.820;2023-06-01T11:34:18;32.31;42.33
67722;SHT31;58309;45.292;11.820;2023-06-01T11:36:48;32.27;44.86
67722;SHT31;58309;45.292;11.820;2023-06-01T11:39:22;32.72;41.02
67722;SHT31;58309;45.292;11.820;2023-06-01T11:41:49;34.03;38.03
67722;SHT31;58309;45.292;11.820;2023-06-01T11:44:15;34.38;39.49
67722;SHT31;58309;45.292;11.820;2023-06-01T11:46:52;34.68;38.81
67722;SHT31;58309;45.292;11.820;2023-06-01T11:49:17;35.23;36.32
67722;SHT31;58309;45.292;11.820;2023-06-01T11:51:43;35.84;36.88
67722;SHT31;58309;45.292;11.820;2023-06-01T11:54:09;35.77;36.46
67722;SHT31;58309;45.292;11.820;2023-06-01T11:56:36;34.68;36.57
67722;SHT31;58309;45.292;11.820;2023-06-01T11:59:03;35.12;40.76
67722;SHT31;58309;45.292;11.820;2023-06-01T12:01:42;34.91;39.94
67722;SHT31;58309;45.292;11.820;2023-06-01T12:04:12;35.25;37.94
67722;SHT31;58309;45.292;11.820;2023-06-01T12:06:38;35.77;38.58
67722;SHT31;58309;45.292;11.820;2023-06-01T12:09:03;35.32;40.95
67722;SHT31;58309;45.292;11.820;2023-06-01T12:11:32;34.84;41.75
67722;SHT31;58309;45.292;11.820;2023-06-01T12:13:58;34.88;39.14
67722;SHT31;58309;45.292;11.820;2023-06-01T12:16:24;34.03;39.91
67722;SHT31;58309;45.292;11.820;2023-06-01T12:18:52;34.10;38.04
67722;SHT31;58309;45.292;11.820;2023-06-01T12:21:19;34.13;41.08
67722;SHT31;58309;45.292;11.820;2023-06-01T12:23:49;33.45;41.41
67722;SHT31;58309;45.292;11.820;2023-06-01T12:26:17;33.19;40.50
67722;SHT31;58309;45.292;11.820;2023-06-01T12:28:51;33.14;41.69
67722;SHT31;58309;45.292;11.820;2023-06-01T12:31:18;31.90;44.33
67722;SHT31;58309;45.292;11.820;2023-06-01T12:33:45;30.69;45.43
67722;SHT31;58309;45.292;11.820;2023-06-01T12:36:27;29.82;47.54
67722;SHT31;58309;45.292;11.820;2023-06-01T12:38:53;29.91;47.21
67722;SHT31;58309;45.292;11.820;2023-06-01T12:41:19;30.12;45.86
67722;SHT31;58309;45.292;11.820;2023-06-01T12:43:47;29.72;46.28
67722;SHT31;58309;45.292;11.820;2023-06-01T12:46:20;29.64;46.46
67722;SHT31;58309;45.292;11.820;2023-06-01T12:48:46;29.10;48.68
67722;SHT31;58309;45.292;11.820;2023-06-01T12:51:13;29.24;47.23
67722;SHT31;58309;45.292;11.820;2023-06-01T12:53:39;29.20;46.04
67722;SHT31;58309;45.292;11.820;2023-06-01T12:56:05;28.98;48.58
67722;SHT31;58309;45.292;11.820;2023-06-01T12:58:32;28.79;48.14
67722;SHT31;58309;45.292;11.820;2023-06-01T13:00:57;28.32;47.43
67722;SHT31;58309;45.292;11.820;2023-06-01T13:03:23;28.47;48.41
67722;SHT31;58309;45.292;11.820;2023-06-01T13:05:49;28.63;46.72
67722;SHT31;58309;45.292;11.820;2023-06-01T13:08:16;28.59;46.68
67722;SHT31;58309;45.292;11.820;2023-06-01T13:10:42;28.78;47.40
67722;SHT31;58309;45.292;11.820;2023-06-01T13:13:08;28.85;48.76
67722;SHT31;58309;45.292;11.820;2023-06-01T13:15:34;28.73;49.92
67722;SHT31;58309;45.292;11.820;2023-06-01T13:18:06;29.02;47.94
67722;SHT31;58309;45.292;11.820;2023-06-01T13:20:31;28.88;47.09
67722;SHT31;58309;45.292;11.820;2023-06-01T13:22:57;28.96;45.23
67722;SHT31;58309;45.292;11.820;2023-06-01T13:25:22;28.98;44.19
67722;SHT31;58309;45.292;11.820;2023-06-01T13:27:48;28.75;45.62
67722;SHT31;58309;45.292;11.820;2023-06-01T13:30:14;28.66;43.76
67722;SHT31;58309;45.292;11.820;2023-06-01T13:32:40;28.14;45.05
67722;SHT31;58309;45.292;11.820;2023-06-01T13:35:06;28.47;46.44
67722;SHT31;58309;45.292;11.820;2023-06-01T13:37:31;28.40;47.30
67722;SHT31;58309;45.292;11.820;2023-06-01T13:39:57;28.44;43.94
67722;SHT31;58309;45.292;11.820;2023-06-01T13:42:23;28.61;44.23
67722;SHT31;58309;45.292;11.820;2023-06-01T13:44:48;28.17;44.44
67722;SHT31;58309;45.292;11.820;2023-06-01T13:47:14;28.07;44.63
67722;SHT31;58309;45.292;11.820;2023-06-01T13:49:43;28.20;45.10
67722;SHT31;58309;45.292;11.820;2023-06-01T13:52:09;28.37;44.19
67722;SHT31;58309;45.292;11.820;2023-06-01T13:54:35;28.62;44.59
67722;SHT31;58309;45.292;11.820;2023-06-01T13:57:01;28.83;44.49
67722;SHT31;58309;45.292;11.820;2023-06-01T13:59:31;29.03;44.64
67722;SHT31;58309;45.292;11.820;2023-06-01T14:01:57;29.13;44.64
67722;SHT31;58309;45.292;11.820;2023-06-01T14:04:22;29.24;44.87
67722;SHT31;58309;45.292;11.820;2023-06-01T14:06:48;29.37;43.87
67722;SHT31;58309;45.292;11.820;2023-06-01T14:09:16;29.33;45.08
67722;SHT31;58309;45.292;11.820;2023-06-01T14:11:41;29.44;42.08
67722;SHT31;58309;45.292;11.820;2023-06-01T14:14:07;29.17;46.35
67722;SHT31;58309;45.292;11.820;2023-06-01T14:16:32;29.23;43.65
67722;SHT31;58309;45.292;11.820;2023-06-01T14:18:58;29.47;41.79
67722;SHT31;58309;45.292;11.820;2023-06-01T14:21:24;29.41;43.29
67722;SHT31;58309;45.292;11.820;2023-06-01T14:23:49;29.61;45.01
67722;SHT31;58309;45.292;11.820;2023-06-01T14:26:15;29.64;43.10
67722;SHT31;58309;45.292;11.820;2023-06-01T14:28:40;29.54;42.87
67722;SHT31;58309;45.292;11.820;2023-06-01T14:31:05;29.37;43.12
67722;SHT31;58309;45.292;11.820;2023-06-01T14:33:31;29.37;42.47
67722;SHT31;58309;45.292;11.820;2023-06-01T14:35:56;29.22;41.13
67722;SHT31;58309;45.292;11.820;2023-06-01T14:38:22;28.93;43.54
67722;SHT31;58309;45.292;11.820;2023-06-01T14:40:47;28.86;42.18
67722;SHT31;58309;45.292;11.820;2023-06-01T14:43:13;28.93;41.87
67722;SHT31;58309;45.292;11.820;2023-06-01T14:45:38;29.20;45.09
67722;SHT31;58309;45.292;11.820;2023-06-01T14:48:07;29.92;41.91
67722;SHT31;58309;45.292;11.820;2023-06-01T14:50:32;29.31;42.50
67722;SHT31;58309;45.292;11.820;2023-06-01T14:52:57;29.94;41.77
67722;SHT31;58309;45.292;11.820;2023-06-01T14:55:27;30.36;39.86
67722;SHT31;58309;45.292;11.820;2023-06-01T14:57:53;30.56;40.01
67722;SHT31;58309;45.292;11.820;2023-06-01T15:00:19;29.98;41.97
67722;SHT31;58309;45.292;11.820;2023-06-01T15:02:46;30.18;40.64
67722;SHT31;58309;45.292;11.820;2023-06-01T15:05:12;30.40;40.21
67722;SHT31;58309;45.292;11.820;2023-06-01T15:07:38;30.19;41.09
67722;SHT31;58309;45.292;11.820;2023-06-01T15:10:04;30.12;40.94
67722;SHT31;58309;45.292;11.820;2023-06-01T15:12:30;29.70;40.33
67722;SHT31;58309;45.292;11.820;2023-06-01T15:14:56;29.40;42.06
67722;SHT31;58309;45.292;11.820;2023-06-01T15:17:22;28.78;43.20
67722;SHT31;58309;45.292;11.820;2023-06-01T15:19:47;28.65;43.16
67722;SHT31;58309;45.292;11.820;2023-06-01T15:22:13;28.59;43.60
67722;SHT31;58309;45.292;11.820;2023-06-01T15:24:39;28.31;44.38
67722;SHT31;58309;45.292;11.820;2023-06-01T15:27:06;28.21;44.02
67722;SHT31;58309;45.292;11.820;2023-06-01T15:29:32;28.17;43.87
67722;SHT31;58309;45.292;11.820;2023-06-01T15:31:57;28.10;43.76
67722;SHT31;58309;45.292;11.820;2023-06-01T15:34:23;27.96;44.68
67722;SHT31;58309;45.292;11.820;2023-06-01T15:36:48;27.76;44.51
67722;SHT31;58309;45.292;11.820;2023-06-01T15:39:14;27.66;44.25
67722;SHT31;58309;45.292;11.820;2023-06-01T15:41:41;27.67;46.66